Time;durP1;ratioP1;P1;durP2;ratioP2;P2;SDS_P1;SDS_P2;PMS_P1;PMS_P2;Temp;Humidity;BMP_temperature;BMP_pressure;BME280_temperature;BME280_humidity;BME280_pressure;Samples;Min_cycle;Max_cycle;Signal;HPM_P1;HPM_P2
2023/08/12 00:00:57;;;;;;;9.45;5.78;;;;;;;17.76;100.00;94338.75;4910448;28;20051;-62
2023/08/12 00:03:24;;;;;;;8.15;6.18;;;;;;;17.75;100.00;94337.19;4909725;28;20044;-64
2023/08/12 00:05:52;;;;;;;8.00;5.60;;;;;;;17.69;100.00;94327.91;4909499;28;20054;-63
2023/08/12 00:08:19;;;;;;;8.68;5.95;;;;;;;17.63;100.00;94326.94;4973443;28;20045;-61
2023/08/12 00:10:46;;;;;;;7.80;6.03;;;;;;;17.59;100.00;94335.38;4909542;28;20086;-62
2023/08/12 00:13:17;;;;;;;7.43;5.45;;;;;;;17.56;100.00;94325.19;4924168;28;20040;-64
2023/08/12 00:15:44;;;;;;;8.80;6.40;;;;;;;17.55;100.00;94323.66;4900681;28;20514;-62
2023/08/12 00:18:11;;;;;;;6.90;5.60;;;;;;;17.51;100.00;94325.78;4897440;28;20048;-63
2023/08/12 00:20:38;;;;;;;9.63;6.07;;;;;;;17.47;100.00;94322.34;4909333;28;20045;-66
2023/08/12 00:23:05;;;;;;;9.57;5.78;;;;;;;17.42;100.00;94318.13;4909293;28;20044;-62
2023/08/12 00:25:32;;;;;;;7.78;5.90;;;;;;;17.39;100.00;94316.28;4909190;28;20098;-66
2023/08/12 00:27:59;;;;;;;10.15;6.47;;;;;;;17.36;100.00;94317.94;4907851;28;20048;-64
2023/08/12 00:30:26;;;;;;;9.60;6.50;;;;;;;17.32;100.00;94331.16;4923810;28;20371;-62
2023/08/12 00:32:52;;;;;;;9.68;6.90;;;;;;;17.26;100.00;94326.63;4910091;28;20049;-64
2023/08/12 00:35:19;;;;;;;8.73;6.40;;;;;;;17.24;100.00;94321.53;4909656;28;20401;-62
2023/08/12 00:37:46;;;;;;;8.23;6.43;;;;;;;17.23;100.00;94317.22;4908944;28;20424;-65
2023/08/12 00:40:13;;;;;;;10.00;6.90;;;;;;;17.24;100.00;94320.75;4909853;28;20044;-64
2023/08/12 00:42:40;;;;;;;8.57;6.30;;;;;;;17.22;100.00;94317.66;4909537;28;20098;-62
2023/08/12 00:45:12;;;;;;;9.60;7.03;;;;;;;17.22;100.00;94318.44;4909103;28;20042;-63
2023/08/12 00:47:41;;;;;;;9.43;7.18;;;;;;;17.18;100.00;94315.00;4912570;28;20056;-63
2023/08/12 00:50:11;;;;;;;9.57;7.03;;;;;;;17.13;100.00;94318.34;4926333;28;20130;-63
2023/08/12 00:52:37;;;;;;;9.25;7.18;;;;;;;17.13;100.00;94307.25;4912929;28;20054;-62
2023/08/12 00:55:04;;;;;;;11.70;7.93;;;;;;;17.05;100.00;94305.97;4912113;28;20048;-65
2023/08/12 00:57:31;;;;;;;9.98;7.40;;;;;;;16.98;100.00;94309.72;4912347;28;20056;-65
2023/08/12 00:59:59;;;;;;;11.18;7.50;;;;;;;16.91;100.00;94305.22;4911891;28;20052;-62
2023/08/12 01:02:26;;;;;;;10.02;7.90;;;;;;;16.93;100.00;94304.78;4942805;28;20048;-62
2023/08/12 01:04:53;;;;;;;9.93;7.55;;;;;;;16.96;100.00;94303.84;4912059;28;20416;-63
2023/08/12 01:07:20;;;;;;;12.37;7.70;;;;;;;16.92;100.00;94303.22;4912831;28;20459;-62
2023/08/12 01:09:47;;;;;;;11.38;8.00;;;;;;;16.80;100.00;94303.97;4912026;28;20060;-62
2023/08/12 01:12:17;;;;;;;12.02;7.95;;;;;;;16.81;100.00;94300.81;4913486;28;20048;-63
2023/08/12 01:15:01;;;;;;;10.48;7.53;;;;;;;16.90;100.00;94300.91;4909919;28;20690;-63
2023/08/12 01:17:30;;;;;;;12.18;7.65;;;;;;;16.96;100.00;94299.13;4893368;28;20053;-64
2023/08/12 01:19:59;;;;;;;9.60;6.90;;;;;;;17.01;100.00;94299.75;4903986;28;20175;-62
2023/08/12 01:22:28;;;;;;;8.70;6.90;;;;;;;17.07;100.00;94297.97;4912009;28;20409;-63
2023/08/12 01:24:55;;;;;;;9.68;7.00;;;;;;;17.11;100.00;94301.41;4912036;28;20460;-65
2023/08/12 01:27:22;;;;;;;10.68;7.72;;;;;;;17.02;100.00;94299.28;4912713;28;20044;-63
2023/08/12 01:29:51;;;;;;;10.45;7.60;;;;;;;16.77;100.00;94298.09;4925960;28;20056;-62
2023/08/12 01:32:43;;;;;;;11.67;7.93;;;;;;;16.49;100.00;94299.81;4911853;28;20062;-63
2023/08/12 01:35:20;;;;;;;12.63;9.02;;;;;;;16.54;100.00;94301.25;4923292;28;20826;-62
2023/08/12 01:37:52;;;;;;;10.68;7.93;;;;;;;16.71;100.00;94290.81;4911485;28;20040;-65
2023/08/12 01:40:20;;;;;;;10.82;7.82;;;;;;;16.86;100.00;94289.16;4911899;28;20048;-64
2023/08/12 01:42:48;;;;;;;12.27;7.80;;;;;;;16.90;100.00;94281.50;4911999;28;20037;-63
2023/08/12 01:45:15;;;;;;;10.57;7.97;;;;;;;16.80;100.00;94281.81;4925989;28;20058;-63
2023/08/12 01:47:45;;;;;;;14.10;7.70;;;;;;;16.65;100.00;94281.53;4912493;28;20048;-62
2023/08/12 01:50:13;;;;;;;10.52;7.65;;;;;;;16.76;100.00;94279.94;4898865;28;20506;-63
2023/08/12 01:52:40;;;;;;;10.48;7.50;;;;;;;16.89;100.00;94279.94;4894272;28;20052;-63
2023/08/12 01:55:07;;;;;;;9.57;7.68;;;;;;;16.94;100.00;94276.59;4892513;28;20486;-63
2023/08/12 01:57:34;;;;;;;10.47;7.50;;;;;;;16.98;100.00;94282.00;4893007;28;20047;-63
2023/08/12 02:00:02;;;;;;;11.13;7.70;;;;;;;16.86;100.00;94278.06;4893015;28;20060;-64
2023/08/12 02:02:29;;;;;;;10.38;7.47;;;;;;;16.78;100.00;94280.28;4892884;28;20055;-64
2023/08/12 02:04:55;;;;;;;10.98;7.60;;;;;;;16.76;100.00;94279.94;4894095;28;20056;-62
2023/08/12 02:07:22;;;;;;;10.73;7.63;;;;;;;16.87;100.00;94276.06;4894389;28;20507;-66
2023/08/12 02:09:49;;;;;;;10.37;7.70;;;;;;;16.82;100.00;94276.63;4893558;28;20049;-62
2023/08/12 02:12:16;;;;;;;8.90;7.13;;;;;;;16.84;100.00;94272.19;4927983;28;20033;-62
2023/08/12 02:14:42;;;;;;;12.27;7.60;;;;;;;16.86;100.00;94280.03;4903518;28;20056;-64
2023/08/12 02:17:09;;;;;;;9.35;7.00;;;;;;;16.88;100.00;94281.16;4910482;28;20685;-64
2023/08/12 02:19:36;;;;;;;9.27;7.30;;;;;;;16.93;100.00;94272.28;4910167;28;20098;-62
2023/08/12 02:22:04;;;;;;;8.83;7.03;;;;;;;16.99;100.00;94268.94;4910580;28;20479;-63
2023/08/12 02:24:31;;;;;;;10.80;7.60;;;;;;;17.04;100.00;94271.13;4911870;28;20094;-63
2023/08/12 02:26:58;;;;;;;8.93;7.38;;;;;;;17.05;100.00;94264.38;4911602;28;20054;-62
2023/08/12 02:29:24;;;;;;;9.80;7.38;;;;;;;17.09;100.00;94273.34;4910969;28;20047;-65
2023/08/12 02:31:51;;;;;;;9.95;7.28;;;;;;;17.08;100.00;94266.22;4910467;29;20040;-63
2023/08/12 02:34:18;;;;;;;9.43;7.53;;;;;;;17.00;100.00;94267.69;4911322;28;20485;-62
2023/08/12 02:36:44;;;;;;;10.52;7.40;;;;;;;17.02;100.00;94265.25;4910705;28;20052;-65
2023/08/12 02:39:12;;;;;;;11.10;7.72;;;;;;;16.80;100.00;94259.63;4925433;28;20059;-63
2023/08/12 02:41:38;;;;;;;9.95;7.97;;;;;;;16.64;100.00;94264.13;4911070;28;20048;-65
2023/08/12 02:44:05;;;;;;;9.98;7.80;;;;;;;16.73;100.00;94258.66;4910414;28;20150;-63
2023/08/12 02:46:32;;;;;;;29.00;19.77;;;;;;;16.75;100.00;94266.53;4911178;28;20525;-63
2023/08/12 02:48:58;;;;;;;17.30;12.60;;;;;;;16.85;100.00;94256.34;4910329;28;20055;-63
2023/08/12 02:51:25;;;;;;;10.70;8.30;;;;;;;16.81;100.00;94255.66;4910638;28;20489;-64
2023/08/12 02:53:52;;;;;;;10.40;7.47;;;;;;;16.80;100.00;94256.88;4910787;28;20048;-63
2023/08/12 02:56:18;;;;;;;9.60;7.70;;;;;;;16.90;100.00;94253.78;4909384;28;20036;-63
2023/08/12 02:58:47;;;;;;;10.03;7.70;;;;;;;16.92;100.00;94250.53;4940418;29;20060;-62
2023/08/12 03:01:14;;;;;;;11.70;7.63;;;;;;;16.99;100.00;94250.31;4895757;28;20051;-62
2023/08/12 03:03:40;;;;;;;14.15;7.80;;;;;;;17.07;100.00;94240.50;4898629;28;20052;-64
2023/08/12 03:06:07;;;;;;;9.73;7.65;;;;;;;17.00;100.00;94246.28;4940689;28;20374;-62
2023/08/12 03:08:34;;;;;;;11.52;8.30;;;;;;;16.76;100.00;94251.44;4910283;28;20037;-62
2023/08/12 03:11:02;;;;;;;10.37;7.33;;;;;;;16.71;100.00;94244.47;4909398;28;20474;-62
2023/08/12 03:13:29;;;;;;;12.18;7.40;;;;;;;16.85;100.00;94248.78;4912445;28;20044;-64
2023/08/12 03:15:56;;;;;;;10.10;7.97;;;;;;;16.90;100.00;94239.91;4909956;28;20050;-62
2023/08/12 03:18:23;;;;;;;10.07;7.50;;;;;;;17.00;100.00;94240.75;4910707;28;20044;-62
2023/08/12 03:20:50;;;;;;;9.95;8.00;;;;;;;16.93;100.00;94246.56;4910119;28;20091;-63
2023/08/12 03:23:17;;;;;;;10.10;8.00;;;;;;;16.97;100.00;94244.44;4910648;28;20052;-62
2023/08/12 03:25:43;;;;;;;11.07;8.10;;;;;;;17.00;100.00;94235.19;4909682;28;20429;-63
2023/08/12 03:28:10;;;;;;;10.68;8.20;;;;;;;16.91;100.00;94240.69;4910078;29;20044;-65
2023/08/12 03:30:37;;;;;;;10.77;7.78;;;;;;;16.88;100.00;94238.78;4910156;29;20048;-62
2023/08/12 03:33:04;;;;;;;10.65;8.43;;;;;;;16.91;100.00;94244.22;4910666;28;20047;-63
2023/08/12 03:35:31;;;;;;;11.17;7.60;;;;;;;16.96;100.00;94242.88;4910477;28;20047;-65
2023/08/12 03:37:58;;;;;;;10.30;8.10;;;;;;;16.93;100.00;94243.78;4909766;28;20051;-63
2023/08/12 03:40:24;;;;;;;9.93;7.80;;;;;;;16.90;100.00;94248.22;4910273;28;20055;-63
2023/08/12 03:42:51;;;;;;;10.68;8.20;;;;;;;16.69;100.00;94241.38;4910321;28;20059;-62
2023/08/12 03:45:18;;;;;;;11.15;8.70;;;;;;;16.55;100.00;94248.16;4909995;28;20044;-63
2023/08/12 03:47:44;;;;;;;11.33;8.23;;;;;;;16.53;100.00;94249.84;4909713;28;20405;-62
2023/08/12 03:50:11;;;;;;;11.60;8.32;;;;;;;16.53;100.00;94250.59;4924625;28;20044;-66
2023/08/12 03:52:38;;;;;;;11.00;8.40;;;;;;;16.64;100.00;94247.50;4910735;28;20527;-63
2023/08/12 03:55:05;;;;;;;10.57;8.68;;;;;;;16.76;100.00;94252.22;4908089;28;20044;-62
2023/08/12 03:57:32;;;;;;;9.77;8.20;;;;;;;16.83;100.00;94250.47;4895228;29;20041;-63
2023/08/12 03:59:59;;;;;;;10.90;7.90;;;;;;;16.93;100.00;94250.09;4903729;28;20051;-63
2023/08/12 04:02:26;;;;;;;9.23;7.53;;;;;;;16.89;100.00;94252.22;4892061;28;20337;-65
2023/08/12 04:04:52;;;;;;;10.45;7.82;;;;;;;16.79;100.00;94245.00;4920466;28;20058;-63
2023/08/12 04:07:19;;;;;;;10.80;7.97;;;;;;;16.64;100.00;94250.28;4910105;28;20054;-63
2023/08/12 04:09:46;;;;;;;12.25;8.48;;;;;;;16.60;100.00;94248.81;4907532;28;20060;-62
2023/08/12 04:12:13;;;;;;;10.80;7.80;;;;;;;16.63;100.00;94250.72;4909721;29;20036;-63
2023/08/12 04:14:40;;;;;;;12.45;7.97;;;;;;;16.53;100.00;94249.84;4910244;28;20079;-63
2023/08/12 04:17:07;;;;;;;10.40;8.10;;;;;;;16.56;100.00;94252.50;4909052;29;20437;-64
2023/08/12 04:19:34;;;;;;;10.50;8.30;;;;;;;16.53;100.00;94253.38;4910087;28;20050;-62
2023/08/12 04:22:01;;;;;;;11.57;8.40;;;;;;;16.62;100.00;94244.41;4909352;28;20432;-65
2023/08/12 04:24:28;;;;;;;12.93;7.90;;;;;;;16.68;100.00;94242.59;4909256;29;20052;-63
2023/08/12 04:26:54;;;;;;;9.35;7.72;;;;;;;16.75;100.00;94242.34;4910402;28;20054;-63
2023/08/12 04:29:21;;;;;;;12.13;8.07;;;;;;;16.77;100.00;94236.38;4910835;28;20332;-63
2023/08/12 04:31:48;;;;;;;10.88;8.32;;;;;;;16.76;100.00;94238.38;4923198;28;20050;-65
2023/08/12 04:34:14;;;;;;;9.90;8.25;;;;;;;16.70;100.00;94236.59;4909419;28;20036;-63
2023/08/12 04:36:41;;;;;;;10.37;7.83;;;;;;;16.70;100.00;94231.84;4909277;29;20052;-63
2023/08/12 04:39:10;;;;;;;12.07;7.85;;;;;;;16.82;100.00;94243.34;4909187;28;20846;-62
2023/08/12 04:41:38;;;;;;;10.05;7.93;;;;;;;16.75;100.00;94239.59;4909385;29;20055;-64
2023/08/12 04:44:05;;;;;;;9.75;7.90;;;;;;;16.77;100.00;94245.44;4908713;29;20051;-62
2023/08/12 04:46:32;;;;;;;11.23;8.32;;;;;;;16.71;100.00;94240.94;4909323;29;20067;-63
2023/08/12 04:48:59;;;;;;;11.83;8.00;;;;;;;16.75;100.00;94233.28;4907468;28;20473;-65
2023/08/12 04:51:26;;;;;;;10.40;7.70;;;;;;;16.74;100.00;94238.03;4908698;28;20044;-62
2023/08/12 04:53:53;;;;;;;10.73;7.47;;;;;;;16.99;100.00;94235.66;4908638;28;20732;-62
2023/08/12 04:56:20;;;;;;;10.93;8.32;;;;;;;17.01;100.00;94233.22;4909219;29;20513;-62
2023/08/12 04:58:47;;;;;;;10.70;7.97;;;;;;;16.93;100.00;94239.00;4908703;28;20354;-62
2023/08/12 05:01:13;;;;;;;9.93;7.87;;;;;;;16.86;100.00;94233.72;4894577;29;20049;-64
2023/08/12 05:03:40;;;;;;;11.55;8.20;;;;;;;17.04;100.00;94229.53;4896784;28;20408;-65
2023/08/12 05:06:07;;;;;;;9.68;7.50;;;;;;;17.28;100.00;94238.97;4908619;28;20440;-64
2023/08/12 05:08:34;;;;;;;9.60;7.75;;;;;;;17.48;100.00;94244.19;4923196;29;20095;-63
2023/08/12 05:11:00;;;;;;;9.73;7.60;;;;;;;17.58;100.00;94239.47;4908564;28;20055;-63
2023/08/12 05:13:29;;;;;;;11.67;7.80;;;;;;;17.67;100.00;94239.53;4923321;29;20493;-63
2023/08/12 05:15:56;;;;;;;10.63;7.70;;;;;;;17.65;100.00;94238.44;4907365;29;20094;-64
2023/08/12 05:18:23;;;;;;;12.10;8.05;;;;;;;17.42;100.00;94245.22;4910626;28;20044;-65
2023/08/12 05:20:52;;;;;;;12.13;8.02;;;;;;;17.64;100.00;94231.34;4909215;28;20498;-62
2023/08/12 05:23:20;;;;;;;9.10;7.72;;;;;;;17.97;100.00;94228.94;4908622;28;20044;-62
2023/08/12 05:25:47;;;;;;;9.33;7.60;;;;;;;18.18;100.00;94218.97;4908113;29;20048;-62
2023/08/12 05:28:14;;;;;;;10.30;7.75;;;;;;;18.45;100.00;94218.28;4909113;28;20049;-64
2023/08/12 05:30:40;;;;;;;9.85;7.68;;;;;;;18.41;100.00;94220.44;4908586;28;20051;-64
2023/08/12 05:33:07;;;;;;;10.25;7.88;;;;;;;18.37;100.00;94225.34;4910023;28;20044;-62
2023/08/12 05:35:35;;;;;;;10.40;7.57;;;;;;;18.37;100.00;94222.56;4912050;28;20046;-62
2023/08/12 05:38:02;;;;;;;11.90;8.17;;;;;;;18.42;100.00;94223.97;4911215;28;20045;-65
2023/08/12 05:40:29;;;;;;;10.50;7.70;;;;;;;18.43;100.00;94231.06;4911934;28;20040;-62
2023/08/12 05:42:55;;;;;;;10.23;7.25;;;;;;;18.54;100.00;94226.63;4911492;28;20523;-62
2023/08/12 05:45:22;;;;;;;9.35;7.50;;;;;;;18.68;100.00;94227.28;4911526;28;20063;-66
2023/08/12 05:47:49;;;;;;;9.73;7.88;;;;;;;18.71;100.00;94229.91;4925546;28;20052;-65
2023/08/12 05:50:16;;;;;;;10.27;7.80;;;;;;;18.79;100.00;94232.38;4925886;29;20052;-63
2023/08/12 05:52:43;;;;;;;10.15;7.50;;;;;;;18.96;100.00;94222.56;4911569;29;20060;-65
2023/08/12 05:55:11;;;;;;;9.45;7.80;;;;;;;18.61;100.00;94233.13;4912116;28;20393;-62
2023/08/12 05:57:37;;;;;;;9.90;7.70;;;;;;;18.68;100.00;94225.28;4911878;28;20052;-64
2023/08/12 06:00:05;;;;;;;9.93;7.95;;;;;;;18.84;100.00;94226.25;4910806;28;20493;-62
2023/08/12 06:02:32;;;;;;;8.50;7.33;;;;;;;19.23;100.00;94227.34;4911678;29;20408;-63
2023/08/12 06:04:58;;;;;;;9.07;7.40;;;;;;;19.30;100.00;94227.03;4910868;28;20052;-62
2023/08/12 06:07:25;;;;;;;9.45;7.57;;;;;;;19.18;100.00;94229.97;4977222;28;20052;-64
2023/08/12 06:09:52;;;;;;;9.30;7.60;;;;;;;19.06;100.00;94226.13;4910931;28;20048;-62
2023/08/12 06:12:19;;;;;;;9.40;7.90;;;;;;;19.15;100.00;94231.66;4901921;28;20044;-66
2023/08/12 06:14:45;;;;;;;10.03;7.20;;;;;;;22.17;100.00;94214.91;4894878;28;20048;-65
2023/08/12 06:17:12;;;;;;;11.25;7.43;;;;;;;23.51;100.00;94212.41;4911944;28;20045;-63
2023/08/12 06:19:40;;;;;;;8.82;6.82;;;;;;;25.59;100.00;94203.06;4911279;28;20052;-63
2023/08/12 06:22:06;;;;;;;9.15;6.57;;;;;;;25.10;100.00;94217.19;4910801;28;20051;-66
2023/08/12 06:24:33;;;;;;;7.20;6.45;;;;;;;25.20;100.00;94214.94;4911100;28;20055;-64
2023/08/12 06:27:00;;;;;;;7.10;6.40;;;;;;;25.90;98.80;94207.78;4925152;28;20052;-64
2023/08/12 06:29:27;;;;;;;6.75;5.88;;;;;;;27.20;88.97;94204.78;4909706;28;20055;-67
2023/08/12 06:31:54;;;;;;;6.93;6.22;;;;;;;29.64;75.76;94205.88;4898921;28;20090;-66
2023/08/12 06:34:20;;;;;;;7.05;5.90;;;;;;;29.71;71.33;94218.66;4933243;28;20055;-64
2023/08/12 06:36:47;;;;;;;7.30;5.95;;;;;;;28.07;76.41;94219.47;4911200;28;20052;-66
2023/08/12 06:39:14;;;;;;;7.03;6.07;;;;;;;25.22;97.86;94218.81;4911065;28;20058;-63
2023/08/12 06:41:41;;;;;;;11.23;6.15;;;;;;;24.11;100.00;94217.56;4911426;28;20044;-63
2023/08/12 06:44:07;;;;;;;8.75;6.30;;;;;;;23.64;100.00;94219.66;4910499;28;20055;-63
2023/08/12 06:46:34;;;;;;;7.72;6.15;;;;;;;23.68;100.00;94232.19;4911491;28;20048;-67
2023/08/12 06:49:01;;;;;;;7.72;6.13;;;;;;;23.22;100.00;94229.38;4910478;29;20044;-63
2023/08/12 06:51:27;;;;;;;7.13;5.70;;;;;;;22.27;100.00;94235.19;4911104;29;20489;-66
2023/08/12 06:53:54;;;;;;;8.70;6.00;;;;;;;22.28;100.00;94229.09;4909244;28;20052;-64
2023/08/12 06:56:21;;;;;;;9.32;6.55;;;;;;;21.76;100.00;94222.38;4925095;28;20261;-64
2023/08/12 06:58:47;;;;;;;8.50;6.45;;;;;;;21.71;100.00;94223.81;4911601;28;20048;-63
2023/08/12 07:01:14;;;;;;;10.27;6.78;;;;;;;21.98;100.00;94208.78;4911085;28;20048;-66
2023/08/12 07:03:41;;;;;;;9.40;6.80;;;;;;;22.28;100.00;94215.13;4910724;28;20044;-63
2023/08/12 07:06:08;;;;;;;9.82;6.05;;;;;;;22.30;100.00;94209.06;4909734;28;20465;-65
2023/08/12 07:08:35;;;;;;;8.45;5.90;;;;;;;22.85;100.00;94207.53;4916987;28;20066;-64
2023/08/12 07:11:02;;;;;;;9.18;5.90;;;;;;;23.55;100.00;94203.00;4969561;28;20051;-64
2023/08/12 07:13:29;;;;;;;7.43;5.80;;;;;;;23.79;100.00;94211.94;4911341;28;20040;-65
2023/08/12 07:15:55;;;;;;;7.07;5.80;;;;;;;24.40;100.00;94222.13;4909657;28;20055;-64
2023/08/12 07:18:22;;;;;;;7.78;6.00;;;;;;;23.11;100.00;94213.97;4910571;28;20044;-67
2023/08/12 07:20:50;;;;;;;7.30;5.97;;;;;;;22.82;100.00;94219.69;4910077;28;20048;-64
2023/08/12 07:23:17;;;;;;;10.27;6.60;;;;;;;22.72;100.00;94219.81;4910387;28;20048;-65
2023/08/12 07:25:48;;;;;;;8.52;6.07;;;;;;;23.19;100.00;94205.16;4909438;28;20488;-61
2023/08/12 07:28:15;;;;;;;7.63;5.83;;;;;;;24.04;100.00;94207.56;4910416;28;20040;-63
2023/08/12 07:30:42;;;;;;;7.38;5.65;;;;;;;24.18;100.00;94205.13;4909898;28;20051;-65
2023/08/12 07:33:09;;;;;;;8.55;5.60;;;;;;;23.52;100.00;94213.16;4909280;28;20491;-64
2023/08/12 07:35:35;;;;;;;7.75;5.90;;;;;;;23.50;100.00;94219.28;4910319;28;20444;-66
2023/08/12 07:38:02;;;;;;;8.65;5.93;;;;;;;22.89;100.00;94234.03;4909298;28;20097;-65
2023/08/12 07:40:29;;;;;;;9.30;6.20;;;;;;;22.46;100.00;94241.31;4910498;28;20044;-63
2023/08/12 07:42:56;;;;;;;8.70;6.10;;;;;;;22.01;100.00;94246.16;4900933;28;20058;-66
2023/08/12 07:45:23;;;;;;;8.10;6.47;;;;;;;21.90;100.00;94255.91;4930771;28;20032;-65
2023/08/12 07:47:50;;;;;;;10.30;6.82;;;;;;;21.37;100.00;94267.84;4909280;28;20052;-64
2023/08/12 07:50:17;;;;;;;9.80;6.72;;;;;;;21.49;100.00;94257.66;4909661;28;20040;-64
2023/08/12 07:52:44;;;;;;;9.13;6.73;;;;;;;21.34;100.00;94252.81;4909643;28;20286;-65
2023/08/12 07:55:12;;;;;;;9.10;7.40;;;;;;;21.00;100.00;94245.78;4910166;28;20075;-64
2023/08/12 07:57:39;;;;;;;9.20;7.38;;;;;;;20.84;100.00;94260.16;4924701;29;20045;-63
2023/08/12 08:00:07;;;;;;;11.38;6.78;;;;;;;21.07;100.00;94250.25;4910036;28;20048;-64
2023/08/12 08:02:34;;;;;;;7.85;6.22;;;;;;;21.59;100.00;94236.81;4911083;28;20051;-67
2023/08/12 08:05:02;;;;;;;8.53;6.57;;;;;;;22.66;100.00;94238.56;4909218;28;20052;-65
2023/08/12 08:07:29;;;;;;;8.07;6.10;;;;;;;24.27;100.00;94238.59;4909676;28;20511;-64
2023/08/12 08:09:56;;;;;;;10.48;6.75;;;;;;;23.80;100.00;94238.69;4909383;28;20445;-64
2023/08/12 08:12:23;;;;;;;8.90;6.22;;;;;;;23.90;100.00;94242.88;4910570;28;20109;-64
2023/08/12 08:14:50;;;;;;;7.63;6.10;;;;;;;23.86;100.00;94233.91;4907955;28;20521;-65
2023/08/12 08:17:17;;;;;;;7.27;6.10;;;;;;;23.12;100.00;94245.56;4909523;28;20075;-63
2023/08/12 08:19:43;;;;;;;8.63;6.00;;;;;;;23.15;100.00;94247.38;4909113;28;20511;-64
2023/08/12 08:22:10;;;;;;;8.73;6.18;;;;;;;23.13;100.00;94250.66;4910476;28;20040;-64
2023/08/12 08:24:38;;;;;;;7.50;6.00;;;;;;;23.15;100.00;94257.81;4909347;28;20042;-64
2023/08/12 08:27:04;;;;;;;7.88;6.07;;;;;;;24.24;100.00;94254.38;4909176;28;20102;-63
2023/08/12 08:29:31;;;;;;;7.73;6.10;;;;;;;23.59;100.00;94254.75;4909497;28;20056;-67
2023/08/12 08:31:58;;;;;;;7.35;5.88;;;;;;;23.37;100.00;94257.31;4907890;28;20060;-64
2023/08/12 08:34:25;;;;;;;8.05;5.78;;;;;;;23.75;100.00;94259.00;4909379;29;20055;-64
2023/08/12 08:36:51;;;;;;;7.47;5.75;;;;;;;23.65;100.00;94254.81;4908389;28;20412;-64
2023/08/12 08:39:18;;;;;;;7.45;5.50;;;;;;;23.81;100.00;94261.91;4923585;28;20405;-65
2023/08/12 08:41:47;;;;;;;7.07;5.53;;;;;;;23.75;100.00;94263.84;4917924;28;20052;-64
2023/08/12 08:44:14;;;;;;;8.55;5.25;;;;;;;24.92;100.00;94261.25;4890496;28;20122;-65
2023/08/12 08:46:43;;;;;;;7.35;5.45;;;;;;;27.13;100.00;94259.63;4902128;29;20515;-66
2023/08/12 08:49:11;;;;;;;7.35;4.85;;;;;;;27.62;98.97;94253.56;4922794;28;20684;-67
2023/08/12 08:51:38;;;;;;;7.32;5.18;;;;;;;26.69;100.00;94258.44;4909412;28;20048;-64
2023/08/12 08:54:05;;;;;;;6.60;5.30;;;;;;;26.26;100.00;94256.63;4939094;28;20539;-66
2023/08/12 08:56:33;;;;;;;6.20;5.07;;;;;;;25.88;100.00;94258.09;4909939;28;20114;-66
2023/08/12 08:59:03;;;;;;;6.13;5.25;;;;;;;26.47;100.00;94247.94;4908635;28;20112;-67
2023/08/12 09:01:31;;;;;;;6.65;4.90;;;;;;;29.68;89.73;94245.16;4939527;28;20048;-65
2023/08/12 09:03:58;;;;;;;6.00;4.72;;;;;;;32.23;74.64;94245.06;4977194;28;20123;-67
2023/08/12 09:06:25;;;;;;;6.63;4.50;;;;;;;31.87;68.08;94237.06;4971219;28;20110;-67
2023/08/12 09:08:53;;;;;;;4.90;4.00;;;;;;;32.49;66.60;94244.19;4912150;28;20050;-65
2023/08/12 09:11:20;;;;;;;5.18;4.30;;;;;;;31.49;65.84;94245.84;4912323;28;20040;-65
2023/08/12 09:13:48;;;;;;;5.88;4.43;;;;;;;30.60;73.15;94252.56;4912012;28;20409;-64
2023/08/12 09:16:15;;;;;;;5.65;4.40;;;;;;;31.47;73.57;94259.81;4900562;28;20044;-68
2023/08/12 09:18:42;;;;;;;5.67;4.50;;;;;;;31.91;67.99;94263.03;4942572;28;20418;-64
2023/08/12 09:21:10;;;;;;;5.63;4.38;;;;;;;30.40;75.94;94262.44;4911785;28;22071;-64
2023/08/12 09:23:38;;;;;;;5.60;4.40;;;;;;;28.12;86.25;94260.25;4911548;28;20101;-66
2023/08/12 09:26:16;;;;;;;6.07;4.65;;;;;;;27.15;94.24;94259.13;4911748;28;20044;-64
2023/08/12 09:28:44;;;;;;;5.95;4.85;;;;;;;27.59;93.48;94263.09;4912688;28;20048;-65
2023/08/12 09:31:32;;;;;;;6.20;4.80;;;;;;;27.85;89.26;94252.19;4909994;28;20048;-64
2023/08/12 09:34:03;;;;;;;5.97;4.57;;;;;;;27.26;95.18;94239.38;4911757;28;20350;-67
2023/08/12 09:36:30;;;;;;;7.07;5.00;;;;;;;27.08;95.81;94229.41;4912321;28;20048;-64
2023/08/12 09:39:00;;;;;;;7.20;4.88;;;;;;;26.56;98.83;94221.56;4911582;28;20052;-64
2023/08/12 09:41:28;;;;;;;5.90;5.10;;;;;;;26.37;100.00;94232.59;4908608;28;20053;-64
2023/08/12 09:43:58;;;;;;;6.20;5.30;;;;;;;26.46;100.00;94218.25;4893429;28;20055;-63
2023/08/12 09:46:26;;;;;;;6.13;4.90;;;;;;;26.91;100.00;94215.38;4907631;28;20048;-64
2023/08/12 09:48:52;;;;;;;7.47;5.10;;;;;;;28.33;94.11;94213.38;4922388;28;20494;-64
2023/08/12 09:51:23;;;;;;;6.00;5.20;;;;;;;29.91;83.98;94213.75;4932397;28;20051;-68
2023/08/12 09:53:51;;;;;;;7.30;5.18;;;;;;;31.01;78.06;94193.94;4911190;28;20440;-68
2023/08/12 09:56:22;;;;;;;6.53;5.03;;;;;;;32.10;73.90;94196.88;4911921;28;20497;-66
2023/08/12 09:58:50;;;;;;;7.10;4.78;;;;;;;32.70;70.13;94210.13;4911178;28;20058;-72
2023/08/12 10:01:22;;;;;;;6.10;4.80;;;;;;;32.67;69.60;94228.28;4911667;28;20064;-65
2023/08/12 10:03:51;;;;;;;5.80;4.90;;;;;;;32.58;69.24;94218.19;4912529;28;20413;-68
2023/08/12 10:06:18;;;;;;;6.38;4.97;;;;;;;32.69;67.66;94234.19;4911449;28;20129;-66
2023/08/12 10:08:46;;;;;;;5.87;4.80;;;;;;;30.99;72.34;94228.50;4925431;28;20497;-64
2023/08/12 10:11:14;;;;;;;5.38;4.88;;;;;;;30.13;77.81;94244.56;4911490;29;20051;-65
2023/08/12 10:13:41;;;;;;;6.88;5.18;;;;;;;28.87;84.46;94237.31;4912135;28;20120;-65
2023/08/12 10:16:09;;;;;;;7.38;5.20;;;;;;;28.22;89.56;94239.63;4910554;28;20713;-66
2023/08/12 10:18:39;;;;;;;7.03;5.10;;;;;;;28.51;85.19;94239.44;4911160;28;20038;-65
2023/08/12 10:21:10;;;;;;;11.53;4.87;;;;;;;28.42;86.09;94240.53;4911528;28;20056;-66
2023/08/12 10:23:37;;;;;;;6.13;5.00;;;;;;;28.66;84.38;94249.06;4911384;28;20449;-67
2023/08/12 10:26:06;;;;;;;5.90;4.60;;;;;;;29.07;82.43;94255.84;4910989;28;20059;-64
2023/08/12 10:28:36;;;;;;;6.82;4.97;;;;;;;29.30;81.42;94264.91;4911256;29;20040;-65
2023/08/12 10:31:05;;;;;;;6.22;4.72;;;;;;;29.46;79.29;94258.28;4910708;28;20198;-65
2023/08/12 10:33:39;;;;;;;6.30;4.57;;;;;;;29.04;80.01;94262.56;4912141;28;20493;-65
2023/08/12 10:36:06;;;;;;;6.80;4.50;;;;;;;28.89;77.99;94262.97;4910989;28;20040;-65
2023/08/12 10:38:34;;;;;;;10.38;4.43;;;;;;;27.81;85.38;94268.59;4911210;28;20036;-64
2023/08/12 10:41:21;;;;;;;6.10;4.50;;;;;;;27.59;86.49;94266.66;4911563;28;20080;-65
2023/08/12 10:43:55;;;;;;;5.97;4.03;;;;;;;27.75;86.39;94264.25;4910712;28;20056;-65
2023/08/12 10:46:34;;;;;;;8.23;4.50;;;;;;;27.79;93.90;94259.13;4911266;28;20486;-65
2023/08/12 10:49:07;;;;;;;6.93;4.50;;;;;;;27.39;96.38;94259.31;4910555;29;20141;-66
2023/08/12 10:51:40;;;;;;;9.15;4.30;;;;;;;27.27;100.00;94255.78;4910845;28;20044;-65
2023/08/12 10:54:20;;;;;;;6.00;4.03;;;;;;;26.53;100.00;94259.94;4940749;28;20048;-68
2023/08/12 10:57:11;;;;;;;7.32;4.80;;;;;;;26.49;100.00;94248.94;4941085;28;20059;-68
2023/08/12 10:59:44;;;;;;;8.17;4.80;;;;;;;26.80;100.00;94252.81;4910798;28;20070;-65
2023/08/12 11:02:24;;;;;;;8.73;6.85;;;;;;;26.27;100.00;94263.03;4930629;29;20587;-64
2023/08/12 11:05:01;;;;;;;11.73;6.70;;;;;;;26.69;100.00;94266.88;4902517;28;20048;-66
2023/08/12 11:07:31;;;;;;;7.75;6.40;;;;;;;26.03;100.00;94269.13;4910628;28;20166;-67
2023/08/12 11:10:25;;;;;;;8.15;6.70;;;;;;;26.51;100.00;94262.50;4910260;28;20052;-65
2023/08/12 11:12:52;;;;;;;8.30;6.63;;;;;;;26.84;100.00;94270.19;4912381;28;20048;-66
2023/08/12 11:15:32;;;;;;;8.00;6.20;;;;;;;27.20;100.00;94261.13;4910470;28;20105;-65
2023/08/12 11:18:05;;;;;;;7.80;6.18;;;;;;;26.73;100.00;94258.19;4910311;29;20063;-67
2023/08/12 11:20:33;;;;;;;7.13;5.70;;;;;;;26.74;100.00;94248.44;4910758;28;20060;-67
2023/08/12 11:23:01;;;;;;;6.88;5.40;;;;;;;26.48;97.94;94250.25;4910179;28;20368;-65
2023/08/12 11:25:29;;;;;;;7.23;4.73;;;;;;;26.40;94.45;94245.63;4910146;28;20497;-65
2023/08/12 11:27:56;;;;;;;6.13;4.50;;;;;;;26.44;90.38;94241.28;4909932;28;20108;-65